sensor_id;sensor_type;location;lat;lon;timestamp;temperature;humidity
24326;DHT22;12448;45.532;5.290;2022-10-16T00:02:43;18.30;84.10
24326;DHT22;12448;45.532;5.290;2022-10-16T00:05:24;18.30;83.40
24326;DHT22;12448;45.532;5.290;2022-10-16T00:08:58;18.30;84.00
24326;DHT22;12448;45.532;5.290;2022-10-16T00:11:10;18.30;84.00
24326;DHT22;12448;45.532;5.290;2022-10-16T00:14:26;18.20;84.00
24326;DHT22;12448;45.532;5.290;2022-10-16T00:16:42;18.20;83.90
24326;DHT22;12448;45.532;5.290;2022-10-16T00:19:29;18.20;83.90
24326;DHT22;12448;45.532;5.290;2022-10-16T00:22:21;18.30;84.10
24326;DHT22;12448;45.532;5.290;2022-10-16T00:25:32;18.20;84.00
24326;DHT22;12448;45.532;5.290;2022-10-16T00:32:02;18.20;84.20
24326;DHT22;12448;45.532;5.290;2022-10-16T00:41:17;18.10;84.40
24326;DHT22;12448;45.532;5.290;2022-10-16T00:47:28;18.00;84.60
24326;DHT22;12448;45.532;5.290;2022-10-16T00:50:24;18.00;85.00
24326;DHT22;12448;45.532;5.290;2022-10-16T00:53:02;18.00;85.00
24326;DHT22;12448;45.532;5.290;2022-10-16T00:55:31;18.10;85.10
24326;DHT22;12448;45.532;5.290;2022-10-16T00:58:14;17.90;85.10
24326;DHT22;12448;45.532;5.290;2022-10-16T01:03:49;17.90;85.40
24326;DHT22;12448;45.532;5.290;2022-10-16T01:09:35;17.90;85.50
24326;DHT22;12448;45.532;5.290;2022-10-16T01:20:50;17.90;85.60
24326;DHT22;12448;45.532;5.290;2022-10-16T01:23:46;17.90;85.50
24326;DHT22;12448;45.532;5.290;2022-10-16T01:35:41;17.80;85.80
24326;DHT22;12448;45.532;5.290;2022-10-16T01:38:29;17.80;85.90
24326;DHT22;12448;45.532;5.290;2022-10-16T01:41:45;17.80;86.00
24326;DHT22;12448;45.532;5.290;2022-10-16T01:43:59;17.90;86.00
24326;DHT22;12448;45.532;5.290;2022-10-16T01:46:36;17.80;86.10
24326;DHT22;12448;45.532;5.290;2022-10-16T01:49:03;17.80;86.20
24326;DHT22;12448;45.532;5.290;2022-10-16T01:51:33;17.80;86.60
24326;DHT22;12448;45.532;5.290;2022-10-16T01:54:01;17.70;86.50
24326;DHT22;12448;45.532;5.290;2022-10-16T01:56:28;17.80;86.70
24326;DHT22;12448;45.532;5.290;2022-10-16T01:59:02;17.80;86.80
24326;DHT22;12448;45.532;5.290;2022-10-16T02:01:31;17.80;86.90
24326;DHT22;12448;45.532;5.290;2022-10-16T02:04:07;17.80;86.80
24326;DHT22;12448;45.532;5.290;2022-10-16T02:06:33;17.80;87.00
24326;DHT22;12448;45.532;5.290;2022-10-16T02:09:00;17.80;87.00
24326;DHT22;12448;45.532;5.290;2022-10-16T02:11:25;17.80;86.90
24326;DHT22;12448;45.532;5.290;2022-10-16T02:13:57;17.80;86.90
24326;DHT22;12448;45.532;5.290;2022-10-16T02:16:42;17.80;86.90
24326;DHT22;12448;45.532;5.290;2022-10-16T02:19:12;17.80;87.00
24326;DHT22;12448;45.532;5.290;2022-10-16T02:21:56;17.80;86.90
24326;DHT22;12448;45.532;5.290;2022-10-16T02:24:47;17.80;87.00
24326;DHT22;12448;45.532;5.290;2022-10-16T02:30:32;17.80;87.30
24326;DHT22;12448;45.532;5.290;2022-10-16T02:33:06;17.80;87.50
24326;DHT22;12448;45.532;5.290;2022-10-16T02:35:36;17.80;87.50
24326;DHT22;12448;45.532;5.290;2022-10-16T02:38:03;17.80;87.60
24326;DHT22;12448;45.532;5.290;2022-10-16T02:40:33;17.80;87.70
24326;DHT22;12448;45.532;5.290;2022-10-16T02:42:59;17.80;87.80
24326;DHT22;12448;45.532;5.290;2022-10-16T02:45:28;17.80;87.80
24326;DHT22;12448;45.532;5.290;2022-10-16T02:47:57;17.80;87.90
24326;DHT22;12448;45.532;5.290;2022-10-16T02:50:26;17.80;87.90
24326;DHT22;12448;45.532;5.290;2022-10-16T02:52:55;17.80;88.10
24326;DHT22;12448;45.532;5.290;2022-10-16T02:55:20;17.80;88.20
24326;DHT22;12448;45.532;5.290;2022-10-16T02:57:56;17.80;88.50
24326;DHT22;12448;45.532;5.290;2022-10-16T03:00:25;17.80;88.80
24326;DHT22;12448;45.532;5.290;2022-10-16T03:03:23;17.80;88.60
24326;DHT22;12448;45.532;5.290;2022-10-16T03:05:55;17.80;88.60
24326;DHT22;12448;45.532;5.290;2022-10-16T03:08:38;17.80;88.70
24326;DHT22;12448;45.532;5.290;2022-10-16T03:11:09;17.80;88.70
24326;DHT22;12448;45.532;5.290;2022-10-16T03:13:42;17.80;88.70
24326;DHT22;12448;45.532;5.290;2022-10-16T03:16:11;17.80;88.60
24326;DHT22;12448;45.532;5.290;2022-10-16T03:18:43;17.80;88.60
24326;DHT22;12448;45.532;5.290;2022-10-16T03:21:08;17.70;88.60
24326;DHT22;12448;45.532;5.290;2022-10-16T03:23:34;17.80;88.70
24326;DHT22;12448;45.532;5.290;2022-10-16T03:25:59;17.80;88.70
24326;DHT22;12448;45.532;5.290;2022-10-16T03:28:28;17.80;88.70
24326;DHT22;12448;45.532;5.290;2022-10-16T03:31:03;17.80;88.80
24326;DHT22;12448;45.532;5.290;2022-10-16T03:33:29;17.80;88.80
24326;DHT22;12448;45.532;5.290;2022-10-16T03:35:58;17.70;88.90
24326;DHT22;12448;45.532;5.290;2022-10-16T03:38:42;17.70;88.90
24326;DHT22;12448;45.532;5.290;2022-10-16T03:41:17;17.70;89.00
24326;DHT22;12448;45.532;5.290;2022-10-16T03:44:08;17.80;89.10
24326;DHT22;12448;45.532;5.290;2022-10-16T03:46:42;17.80;89.00
24326;DHT22;12448;45.532;5.290;2022-10-16T03:49:14;17.80;89.10
24326;DHT22;12448;45.532;5.290;2022-10-16T03:51:45;17.80;88.90
24326;DHT22;12448;45.532;5.290;2022-10-16T03:54:11;17.80;88.80
24326;DHT22;12448;45.532;5.290;2022-10-16T03:56:37;17.80;88.70
24326;DHT22;12448;45.532;5.290;2022-10-16T03:59:03;17.80;88.60
24326;DHT22;12448;45.532;5.290;2022-10-16T04:01:29;17.80;88.50
24326;DHT22;12448;45.532;5.290;2022-10-16T04:03:54;17.80;88.50
24326;DHT22;12448;45.532;5.290;2022-10-16T04:06:20;17.80;88.60
24326;DHT22;12448;45.532;5.290;2022-10-16T04:08:46;17.80;88.50
24326;DHT22;12448;45.532;5.290;2022-10-16T04:11:11;17.80;88.50
24326;DHT22;12448;45.532;5.290;2022-10-16T04:13:37;17.80;88.50
24326;DHT22;12448;45.532;5.290;2022-10-16T04:16:03;17.80;88.60
24326;DHT22;12448;45.532;5.290;2022-10-16T04:18:45;17.70;88.60
24326;DHT22;12448;45.532;5.290;2022-10-16T04:21:20;17.80;88.60
24326;DHT22;12448;45.532;5.290;2022-10-16T04:23:51;17.70;88.40
24326;DHT22;12448;45.532;5.290;2022-10-16T04:26:31;17.70;88.40
24326;DHT22;12448;45.532;5.290;2022-10-16T04:29:18;17.70;88.40
24326;DHT22;12448;45.532;5.290;2022-10-16T04:31:47;17.80;88.40
24326;DHT22;12448;45.532;5.290;2022-10-16T04:34:18;17.80;88.30
24326;DHT22;12448;45.532;5.290;2022-10-16T04:37:05;17.70;88.20
24326;DHT22;12448;45.532;5.290;2022-10-16T04:39:33;17.70;88.00
24326;DHT22;12448;45.532;5.290;2022-10-16T04:41:59;17.70;87.90
24326;DHT22;12448;45.532;5.290;2022-10-16T04:44:24;17.70;87.90
24326;DHT22;12448;45.532;5.290;2022-10-16T04:46:53;17.60;87.70
24326;DHT22;12448;45.532;5.290;2022-10-16T04:49:27;17.60;87.90
24326;DHT22;12448;45.532;5.290;2022-10-16T04:51:53;17.50;88.00
24326;DHT22;12448;45.532;5.290;2022-10-16T04:54:19;17.50;88.20
24326;DHT22;12448;45.532;5.290;2022-10-16T04:56:44;17.50;88.40
24326;DHT22;12448;45.532;5.290;2022-10-16T04:59:15;17.40;89.30
24326;DHT22;12448;45.532;5.290;2022-10-16T05:01:40;17.40;88.60
24326;DHT22;12448;45.532;5.290;2022-10-16T05:04:06;17.50;88.70
24326;DHT22;12448;45.532;5.290;2022-10-16T05:06:32;17.50;88.70
24326;DHT22;12448;45.532;5.290;2022-10-16T05:08:58;17.50;88.60
24326;DHT22;12448;45.532;5.290;2022-10-16T05:11:23;17.50;88.60
24326;DHT22;12448;45.532;5.290;2022-10-16T05:13:49;17.50;88.50
24326;DHT22;12448;45.532;5.290;2022-10-16T05:16:15;17.50;88.40
24326;DHT22;12448;45.532;5.290;2022-10-16T05:18:40;17.50;88.40
24326;DHT22;12448;45.532;5.290;2022-10-16T05:21:06;17.50;88.30
24326;DHT22;12448;45.532;5.290;2022-10-16T05:23:32;17.50;88.30
24326;DHT22;12448;45.532;5.290;2022-10-16T05:25:58;17.50;88.20
24326;DHT22;12448;45.532;5.290;2022-10-16T05:28:25;17.50;88.10
24326;DHT22;12448;45.532;5.290;2022-10-16T05:30:51;17.50;88.10
24326;DHT22;12448;45.532;5.290;2022-10-16T05:33:19;17.50;88.00
24326;DHT22;12448;45.532;5.290;2022-10-16T05:35:44;17.50;88.00
24326;DHT22;12448;45.532;5.290;2022-10-16T05:38:10;17.70;88.20
24326;DHT22;12448;45.532;5.290;2022-10-16T05:40:36;17.50;88.10
24326;DHT22;12448;45.532;5.290;2022-10-16T05:43:02;17.40;88.20
24326;DHT22;12448;45.532;5.290;2022-10-16T05:45:27;17.40;88.20
24326;DHT22;12448;45.532;5.290;2022-10-16T05:47:53;17.40;88.20
24326;DHT22;12448;45.532;5.290;2022-10-16T05:50:18;17.40;88.40
24326;DHT22;12448;45.532;5.290;2022-10-16T05:52:44;17.40;88.40
24326;DHT22;12448;45.532;5.290;2022-10-16T05:55:12;17.30;88.50
24326;DHT22;12448;45.532;5.290;2022-10-16T05:57:38;17.30;88.80
24326;DHT22;12448;45.532;5.290;2022-10-16T06:00:05;17.30;88.80
24326;DHT22;12448;45.532;5.290;2022-10-16T06:02:30;17.30;88.90
24326;DHT22;12448;45.532;5.290;2022-10-16T06:04:56;17.30;89.00
24326;DHT22;12448;45.532;5.290;2022-10-16T06:07:22;17.30;89.20
24326;DHT22;12448;45.532;5.290;2022-10-16T06:09:49;17.30;89.20
24326;DHT22;12448;45.532;5.290;2022-10-16T06:12:15;17.20;89.40
24326;DHT22;12448;45.532;5.290;2022-10-16T06:14:41;17.20;89.40
24326;DHT22;12448;45.532;5.290;2022-10-16T06:17:07;17.20;89.50
24326;DHT22;12448;45.532;5.290;2022-10-16T06:19:32;17.20;89.80
24326;DHT22;12448;45.532;5.290;2022-10-16T06:21:58;17.20;89.70
24326;DHT22;12448;45.532;5.290;2022-10-16T06:24:24;17.20;89.60
24326;DHT22;12448;45.532;5.290;2022-10-16T06:26:50;17.20;89.50
24326;DHT22;12448;45.532;5.290;2022-10-16T06:29:16;17.20;89.40
24326;DHT22;12448;45.532;5.290;2022-10-16T06:31:41;17.20;89.30
24326;DHT22;12448;45.532;5.290;2022-10-16T06:34:10;17.20;89.20
24326;DHT22;12448;45.532;5.290;2022-10-16T06:36:37;17.20;89.10
24326;DHT22;12448;45.532;5.290;2022-10-16T06:39:04;17.30;89.10
24326;DHT22;12448;45.532;5.290;2022-10-16T06:41:30;17.30;89.00
24326;DHT22;12448;45.532;5.290;2022-10-16T06:43:56;17.20;88.90
24326;DHT22;12448;45.532;5.290;2022-10-16T06:46:26;17.20;88.80
24326;DHT22;12448;45.532;5.290;2022-10-16T06:48:53;17.30;88.80
24326;DHT22;12448;45.532;5.290;2022-10-16T06:51:21;17.30;88.50
24326;DHT22;12448;45.532;5.290;2022-10-16T06:53:52;17.40;88.40
24326;DHT22;12448;45.532;5.290;2022-10-16T06:56:22;17.40;88.20
24326;DHT22;12448;45.532;5.290;2022-10-16T06:58:48;17.40;88.20
24326;DHT22;12448;45.532;5.290;2022-10-16T07:01:15;17.40;88.00
24326;DHT22;12448;45.532;5.290;2022-10-16T07:03:43;17.50;87.90
24326;DHT22;12448;45.532;5.290;2022-10-16T07:06:10;17.50;87.60
24326;DHT22;12448;45.532;5.290;2022-10-16T07:08:41;17.50;87.30
24326;DHT22;12448;45.532;5.290;2022-10-16T07:11:21;17.50;86.50
24326;DHT22;12448;45.532;5.290;2022-10-16T07:13:47;17.60;86.80
24326;DHT22;12448;45.532;5.290;2022-10-16T07:16:14;17.50;86.30
24326;DHT22;12448;45.532;5.290;2022-10-16T07:18:40;17.60;86.50
24326;DHT22;12448;45.532;5.290;2022-10-16T07:21:11;17.60;86.50
24326;DHT22;12448;45.532;5.290;2022-10-16T07:23:37;17.60;86.00
24326;DHT22;12448;45.532;5.290;2022-10-16T07:26:04;17.60;85.60
24326;DHT22;12448;45.532;5.290;2022-10-16T07:28:30;17.70;85.30
24326;DHT22;12448;45.532;5.290;2022-10-16T07:31:03;17.70;84.90
24326;DHT22;12448;45.532;5.290;2022-10-16T07:33:31;17.70;85.10
24326;DHT22;12448;45.532;5.290;2022-10-16T07:35:56;17.80;85.10
24326;DHT22;12448;45.532;5.290;2022-10-16T07:38:23;17.40;84.60
24326;DHT22;12448;45.532;5.290;2022-10-16T07:40:56;17.90;85.50
24326;DHT22;12448;45.532;5.290;2022-10-16T07:43:23;18.00;84.40
24326;DHT22;12448;45.532;5.290;2022-10-16T07:45:49;18.00;84.20
24326;DHT22;12448;45.532;5.290;2022-10-16T07:48:16;18.10;84.30
24326;DHT22;12448;45.532;5.290;2022-10-16T07:50:43;18.10;84.30
24326;DHT22;12448;45.532;5.290;2022-10-16T07:53:09;18.20;84.20
24326;DHT22;12448;45.532;5.290;2022-10-16T07:55:35;18.20;84.20
24326;DHT22;12448;45.532;5.290;2022-10-16T07:58:01;18.30;84.00
24326;DHT22;12448;45.532;5.290;2022-10-16T08:00:27;18.20;83.60
24326;DHT22;12448;45.532;5.290;2022-10-16T08:02:52;18.20;83.60
24326;DHT22;12448;45.532;5.290;2022-10-16T08:05:18;18.30;83.50
24326;DHT22;12448;45.532;5.290;2022-10-16T08:07:48;18.30;83.40
24326;DHT22;12448;45.532;5.290;2022-10-16T08:10:18;18.30;83.20
24326;DHT22;12448;45.532;5.290;2022-10-16T08:12:44;18.40;83.10
24326;DHT22;12448;45.532;5.290;2022-10-16T08:15:10;18.40;82.90
24326;DHT22;12448;45.532;5.290;2022-10-16T08:17:36;18.40;82.60
24326;DHT22;12448;45.532;5.290;2022-10-16T08:20:02;18.40;82.80
24326;DHT22;12448;45.532;5.290;2022-10-16T08:22:28;18.40;82.90
24326;DHT22;12448;45.532;5.290;2022-10-16T08:24:54;18.50;82.90
24326;DHT22;12448;45.532;5.290;2022-10-16T08:27:19;18.50;82.80
24326;DHT22;12448;45.532;5.290;2022-10-16T08:29:45;18.50;82.50
24326;DHT22;12448;45.532;5.290;2022-10-16T08:32:10;18.50;82.20
24326;DHT22;12448;45.532;5.290;2022-10-16T08:34:36;18.60;82.20
24326;DHT22;12448;45.532;5.290;2022-10-16T08:37:02;18.60;82.10
24326;DHT22;12448;45.532;5.290;2022-10-16T08:39:28;18.60;82.00
24326;DHT22;12448;45.532;5.290;2022-10-16T08:45:08;18.80;80.90
24326;DHT22;12448;45.532;5.290;2022-10-16T08:50:27;18.80;81.10
24326;DHT22;12448;45.532;5.290;2022-10-16T08:52:54;18.90;81.30
24326;DHT22;12448;45.532;5.290;2022-10-16T08:58:29;19.00;80.90
24326;DHT22;12448;45.532;5.290;2022-10-16T09:01:12;19.00;80.10
24326;DHT22;12448;45.532;5.290;2022-10-16T09:06:25;19.00;80.40
24326;DHT22;12448;45.532;5.290;2022-10-16T09:11:51;19.10;80.50
24326;DHT22;12448;45.532;5.290;2022-10-16T09:23:29;19.30;79.90
24326;DHT22;12448;45.532;5.290;2022-10-16T09:25:57;19.40;79.60
24326;DHT22;12448;45.532;5.290;2022-10-16T09:28:24;19.40;79.50
24326;DHT22;12448;45.532;5.290;2022-10-16T09:31:04;19.50;78.90
24326;DHT22;12448;45.532;5.290;2022-10-16T09:37:09;19.60;77.90
24326;DHT22;12448;45.532;5.290;2022-10-16T09:39:57;19.60;78.30
24326;DHT22;12448;45.532;5.290;2022-10-16T09:42:36;19.70;78.30
24326;DHT22;12448;45.532;5.290;2022-10-16T09:45:35;19.70;78.00
24326;DHT22;12448;45.532;5.290;2022-10-16T09:51:51;19.90;77.60
24326;DHT22;12448;45.532;5.290;2022-10-16T09:55:18;20.00;76.60
24326;DHT22;12448;45.532;5.290;2022-10-16T09:57:54;20.10;76.20
24326;DHT22;12448;45.532;5.290;2022-10-16T10:00:21;20.10;76.60
24326;DHT22;12448;45.532;5.290;2022-10-16T10:02:47;20.20;76.70
24326;DHT22;12448;45.532;5.290;2022-10-16T10:07:57;20.40;75.60
24326;DHT22;12448;45.532;5.290;2022-10-16T10:10:29;20.40;75.50
24326;DHT22;12448;45.532;5.290;2022-10-16T10:12:55;20.40;75.30
24326;DHT22;12448;45.532;5.290;2022-10-16T10:15:22;20.50;74.80
24326;DHT22;12448;45.532;5.290;2022-10-16T10:17:51;20.50;74.90
24326;DHT22;12448;45.532;5.290;2022-10-16T10:20:31;20.60;74.10
24326;DHT22;12448;45.532;5.290;2022-10-16T10:23:01;20.70;73.60
24326;DHT22;12448;45.532;5.290;2022-10-16T10:25:45;20.70;74.20
24326;DHT22;12448;45.532;5.290;2022-10-16T10:33:41;20.80;73.80
24326;DHT22;12448;45.532;5.290;2022-10-16T10:36:33;20.80;73.80
24326;DHT22;12448;45.532;5.290;2022-10-16T10:42:14;20.90;73.90
24326;DHT22;12448;45.532;5.290;2022-10-16T10:47:45;21.00;73.10
24326;DHT22;12448;45.532;5.290;2022-10-16T10:50:37;21.10;72.30
24326;DHT22;12448;45.532;5.290;2022-10-16T10:59:09;21.20;71.90
24326;DHT22;12448;45.532;5.290;2022-10-16T11:07:04;21.40;71.50
24326;DHT22;12448;45.532;5.290;2022-10-16T11:10:05;21.50;71.20
24326;DHT22;12448;45.532;5.290;2022-10-16T11:12:49;21.40;70.20
24326;DHT22;12448;45.532;5.290;2022-10-16T11:15:32;21.40;70.90
24326;DHT22;12448;45.532;5.290;2022-10-16T11:21:07;21.50;70.50
24326;DHT22;12448;45.532;5.290;2022-10-16T11:24:49;21.50;70.80
24326;DHT22;12448;45.532;5.290;2022-10-16T11:36:27;21.60;69.90
24326;DHT22;12448;45.532;5.290;2022-10-16T11:42:13;21.60;69.40
24326;DHT22;12448;45.532;5.290;2022-10-16T11:45:07;21.70;69.10
24326;DHT22;12448;45.532;5.290;2022-10-16T11:47:51;21.70;68.80
24326;DHT22;12448;45.532;5.290;2022-10-16T11:55:48;22.10;68.80
24326;DHT22;12448;45.532;5.290;2022-10-16T11:58:41;21.70;69.40
24326;DHT22;12448;45.532;5.290;2022-10-16T12:04:02;21.70;68.50
24326;DHT22;12448;45.532;5.290;2022-10-16T12:06:40;21.80;69.20
24326;DHT22;12448;45.532;5.290;2022-10-16T12:09:34;21.80;69.40
24326;DHT22;12448;45.532;5.290;2022-10-16T12:12:02;21.80;69.60
24326;DHT22;12448;45.532;5.290;2022-10-16T12:17:21;21.80;68.90
24326;DHT22;12448;45.532;5.290;2022-10-16T12:20:21;21.80;68.90
24326;DHT22;12448;45.532;5.290;2022-10-16T12:23:05;21.80;68.70
24326;DHT22;12448;45.532;5.290;2022-10-16T12:25:41;21.80;69.20
24326;DHT22;12448;45.532;5.290;2022-10-16T12:28:20;21.80;69.20
24326;DHT22;12448;45.532;5.290;2022-10-16T12:30:54;22.00;69.00
24326;DHT22;12448;45.532;5.290;2022-10-16T12:33:27;21.90;68.60
24326;DHT22;12448;45.532;5.290;2022-10-16T12:35:54;21.90;68.10
24326;DHT22;12448;45.532;5.290;2022-10-16T12:38:48;21.90;67.70
24326;DHT22;12448;45.532;5.290;2022-10-16T12:41:27;22.00;67.80
24326;DHT22;12448;45.532;5.290;2022-10-16T12:43:53;22.00;67.80
24326;DHT22;12448;45.532;5.290;2022-10-16T12:48:45;22.10;67.60
24326;DHT22;12448;45.532;5.290;2022-10-16T12:51:25;22.10;68.00
24326;DHT22;12448;45.532;5.290;2022-10-16T12:53:59;22.10;68.20
24326;DHT22;12448;45.532;5.290;2022-10-16T13:02:39;21.80;67.50
24326;DHT22;12448;45.532;5.290;2022-10-16T13:05:26;22.20;68.30
24326;DHT22;12448;45.532;5.290;2022-10-16T13:28:05;22.30;68.70
24326;DHT22;12448;45.532;5.290;2022-10-16T13:30:53;22.40;69.00
24326;DHT22;12448;45.532;5.290;2022-10-16T13:36:01;22.40;68.40
24326;DHT22;12448;45.532;5.290;2022-10-16T13:38:29;22.40;68.30
24326;DHT22;12448;45.532;5.290;2022-10-16T13:41:06;22.40;68.70
24326;DHT22;12448;45.532;5.290;2022-10-16T13:46:25;22.30;69.00
24326;DHT22;12448;45.532;5.290;2022-10-16T13:51:27;22.30;68.00
24326;DHT22;12448;45.532;5.290;2022-10-16T13:53:55;22.30;68.30
24326;DHT22;12448;45.532;5.290;2022-10-16T13:56:24;22.30;68.20
24326;DHT22;12448;45.532;5.290;2022-10-16T13:59:01;22.30;68.30
24326;DHT22;12448;45.532;5.290;2022-10-16T14:01:34;22.30;68.50
24326;DHT22;12448;45.532;5.290;2022-10-16T14:04:11;22.30;68.50
24326;DHT22;12448;45.532;5.290;2022-10-16T14:06:46;22.30;68.80
24326;DHT22;12448;45.532;5.290;2022-10-16T14:09:25;22.30;68.80
24326;DHT22;12448;45.532;5.290;2022-10-16T14:11:54;22.30;69.20
24326;DHT22;12448;45.532;5.290;2022-10-16T14:14:21;22.30;70.00
24326;DHT22;12448;45.532;5.290;2022-10-16T14:16:48;22.40;69.70
24326;DHT22;12448;45.532;5.290;2022-10-16T14:19:20;22.30;69.40
24326;DHT22;12448;45.532;5.290;2022-10-16T14:21:48;22.30;69.40
24326;DHT22;12448;45.532;5.290;2022-10-16T14:24:32;22.30;69.60
24326;DHT22;12448;45.532;5.290;2022-10-16T14:26:59;22.40;70.00
24326;DHT22;12448;45.532;5.290;2022-10-16T14:29:26;22.30;70.20
24326;DHT22;12448;45.532;5.290;2022-10-16T14:32:03;22.40;70.40
24326;DHT22;12448;45.532;5.290;2022-10-16T14:34:30;22.40;70.60
24326;DHT22;12448;45.532;5.290;2022-10-16T14:37:41;22.30;70.60
24326;DHT22;12448;45.532;5.290;2022-10-16T14:39:52;22.30;70.60
24326;DHT22;12448;45.532;5.290;2022-10-16T14:42:20;22.30;71.00
24326;DHT22;12448;45.532;5.290;2022-10-16T14:44:46;22.30;71.20
24326;DHT22;12448;45.532;5.290;2022-10-16T14:47:21;22.20;71.30
24326;DHT22;12448;45.532;5.290;2022-10-16T14:49:51;22.30;71.30
24326;DHT22;12448;45.532;5.290;2022-10-16T14:52:16;22.20;71.40
24326;DHT22;12448;45.532;5.290;2022-10-16T14:54:42;22.20;71.70
24326;DHT22;12448;45.532;5.290;2022-10-16T14:57:38;22.20;72.00
24326;DHT22;12448;45.532;5.290;2022-10-16T15:00:15;22.20;71.90
24326;DHT22;12448;45.532;5.290;2022-10-16T15:02:42;22.20;71.50
24326;DHT22;12448;45.532;5.290;2022-10-16T15:05:17;22.10;71.00
24326;DHT22;12448;45.532;5.290;2022-10-16T15:07:43;22.20;71.20
24326;DHT22;12448;45.532;5.290;2022-10-16T15:10:09;22.10;71.20
24326;DHT22;12448;45.532;5.290;2022-10-16T15:12:35;22.10;71.10
24326;DHT22;12448;45.532;5.290;2022-10-16T15:15:00;22.10;70.70
24326;DHT22;12448;45.532;5.290;2022-10-16T15:17:26;22.10;70.80
24326;DHT22;12448;45.532;5.290;2022-10-16T15:19:52;22.10;70.70
24326;DHT22;12448;45.532;5.290;2022-10-16T15:22:17;22.00;70.70
24326;DHT22;12448;45.532;5.290;2022-10-16T15:24:43;22.00;70.60
24326;DHT22;12448;45.532;5.290;2022-10-16T15:27:09;22.00;71.20
24326;DHT22;12448;45.532;5.290;2022-10-16T15:29:34;22.00;69.90
24326;DHT22;12448;45.532;5.290;2022-10-16T15:32:00;21.90;69.80
24326;DHT22;12448;45.532;5.290;2022-10-16T15:34:26;21.90;69.80
24326;DHT22;12448;45.532;5.290;2022-10-16T15:36:52;21.90;69.80
24326;DHT22;12448;45.532;5.290;2022-10-16T15:39:19;21.90;69.30
24326;DHT22;12448;45.532;5.290;2022-10-16T15:41:46;21.80;69.70
24326;DHT22;12448;45.532;5.290;2022-10-16T15:44:20;21.80;69.20
24326;DHT22;12448;45.532;5.290;2022-10-16T15:46:48;21.80;68.80
24326;DHT22;12448;45.532;5.290;2022-10-16T15:49:20;21.70;68.80
24326;DHT22;12448;45.532;5.290;2022-10-16T15:51:46;21.70;68.80
24326;DHT22;12448;45.532;5.290;2022-10-16T15:54:11;21.70;68.40
24326;DHT22;12448;45.532;5.290;2022-10-16T15:56:37;21.70;68.50
24326;DHT22;12448;45.532;5.290;2022-10-16T15:59:03;21.60;68.40
24326;DHT22;12448;45.532;5.290;2022-10-16T16:01:32;21.60;68.80
24326;DHT22;12448;45.532;5.290;2022-10-16T16:03:58;21.60;68.70
24326;DHT22;12448;45.532;5.290;2022-10-16T16:06:24;21.50;68.90
24326;DHT22;12448;45.532;5.290;2022-10-16T16:08:50;21.50;68.90
24326;DHT22;12448;45.532;5.290;2022-10-16T16:11:17;21.40;69.10
24326;DHT22;12448;45.532;5.290;2022-10-16T16:13:43;21.40;69.30
24326;DHT22;12448;45.532;5.290;2022-10-16T16:16:13;21.40;69.50
24326;DHT22;12448;45.532;5.290;2022-10-16T16:18:43;21.40;69.60
24326;DHT22;12448;45.532;5.290;2022-10-16T16:21:11;21.40;69.80
24326;DHT22;12448;45.532;5.290;2022-10-16T16:23:37;21.30;69.80
24326;DHT22;12448;45.532;5.290;2022-10-16T16:26:13;21.30;69.90
24326;DHT22;12448;45.532;5.290;2022-10-16T16:28:41;21.30;70.20
24326;DHT22;12448;45.532;5.290;2022-10-16T16:31:07;21.20;70.30
24326;DHT22;12448;45.532;5.290;2022-10-16T16:33:33;21.20;70.50
24326;DHT22;12448;45.532;5.290;2022-10-16T16:35:59;21.20;70.70
24326;DHT22;12448;45.532;5.290;2022-10-16T16:38:26;21.20;71.00
24326;DHT22;12448;45.532;5.290;2022-10-16T16:40:51;21.20;71.20
24326;DHT22;12448;45.532;5.290;2022-10-16T16:43:18;21.10;71.40
24326;DHT22;12448;45.532;5.290;2022-10-16T16:45:43;21.10;71.70
24326;DHT22;12448;45.532;5.290;2022-10-16T16:48:09;21.10;72.00
24326;DHT22;12448;45.532;5.290;2022-10-16T16:50:36;21.00;72.10
24326;DHT22;12448;45.532;5.290;2022-10-16T16:53:02;21.00;72.40
24326;DHT22;12448;45.532;5.290;2022-10-16T16:55:28;21.00;72.80
24326;DHT22;12448;45.532;5.290;2022-10-16T16:57:54;21.00;72.90
24326;DHT22;12448;45.532;5.290;2022-10-16T17:00:22;20.90;73.00
24326;DHT22;12448;45.532;5.290;2022-10-16T17:02:50;20.90;73.20
24326;DHT22;12448;45.532;5.290;2022-10-16T17:05:17;20.90;73.50
24326;DHT22;12448;45.532;5.290;2022-10-16T17:07:43;20.90;73.80
24326;DHT22;12448;45.532;5.290;2022-10-16T17:10:09;20.80;74.10
24326;DHT22;12448;45.532;5.290;2022-10-16T17:12:35;20.80;74.20
24326;DHT22;12448;45.532;5.290;2022-10-16T17:15:01;20.80;74.50
24326;DHT22;12448;45.532;5.290;2022-10-16T17:17:26;20.80;74.70
24326;DHT22;12448;45.532;5.290;2022-10-16T17:19:52;20.70;74.70
24326;DHT22;12448;45.532;5.290;2022-10-16T17:22:19;20.70;75.00
24326;DHT22;12448;45.532;5.290;2022-10-16T17:24:48;20.70;75.40
24326;DHT22;12448;45.532;5.290;2022-10-16T17:27:15;20.60;75.60
24326;DHT22;12448;45.532;5.290;2022-10-16T17:29:41;20.60;76.00
24326;DHT22;12448;45.532;5.290;2022-10-16T17:32:06;20.60;76.30
24326;DHT22;12448;45.532;5.290;2022-10-16T17:34:32;20.60;76.40
24326;DHT22;12448;45.532;5.290;2022-10-16T17:36:59;20.50;76.70
24326;DHT22;12448;45.532;5.290;2022-10-16T17:39:25;20.40;77.10
24326;DHT22;12448;45.532;5.290;2022-10-16T17:41:51;20.50;78.30
24326;DHT22;12448;45.532;5.290;2022-10-16T17:44:17;20.50;77.70
24326;DHT22;12448;45.532;5.290;2022-10-16T17:46:50;20.50;78.00
24326;DHT22;12448;45.532;5.290;2022-10-16T17:49:16;20.50;78.30
24326;DHT22;12448;45.532;5.290;2022-10-16T17:51:42;20.50;78.70
24326;DHT22;12448;45.532;5.290;2022-10-16T17:54:08;20.40;78.90
24326;DHT22;12448;45.532;5.290;2022-10-16T17:56:34;20.40;78.80
24326;DHT22;12448;45.532;5.290;2022-10-16T17:59:01;20.40;78.90
24326;DHT22;12448;45.532;5.290;2022-10-16T18:01:36;20.40;79.20
24326;DHT22;12448;45.532;5.290;2022-10-16T18:04:05;20.50;79.50
24326;DHT22;12448;45.532;5.290;2022-10-16T18:06:32;20.40;79.90
24326;DHT22;12448;45.532;5.290;2022-10-16T18:08:58;20.40;80.00
24326;DHT22;12448;45.532;5.290;2022-10-16T18:11:25;20.30;80.50
24326;DHT22;12448;45.532;5.290;2022-10-16T18:13:52;20.30;81.20
24326;DHT22;12448;45.532;5.290;2022-10-16T18:16:18;20.50;81.50
24326;DHT22;12448;45.532;5.290;2022-10-16T18:18:44;20.30;81.40
24326;DHT22;12448;45.532;5.290;2022-10-16T18:21:11;20.20;82.10
24326;DHT22;12448;45.532;5.290;2022-10-16T18:23:38;20.20;82.00
24326;DHT22;12448;45.532;5.290;2022-10-16T18:26:05;20.20;83.00
24326;DHT22;12448;45.532;5.290;2022-10-16T18:28:31;20.20;82.50
24326;DHT22;12448;45.532;5.290;2022-10-16T18:30:59;20.20;82.50
24326;DHT22;12448;45.532;5.290;2022-10-16T18:33:26;20.20;83.00
24326;DHT22;12448;45.532;5.290;2022-10-16T18:35:52;20.10;82.90
24326;DHT22;12448;45.532;5.290;2022-10-16T18:38:19;20.10;83.40